createdAt,value
2023-04-09T00:00:13.715Z,1025.51
2023-04-09T00:01:13.620Z,1025.52
2023-04-09T00:02:13.902Z,1025.48
2023-04-09T00:03:12.967Z,1025.47
2023-04-09T00:04:12.983Z,1025.51
2023-04-09T00:05:12.950Z,1025.48
2023-04-09T00:06:12.927Z,1025.47
2023-04-09T00:07:12.977Z,1025.47
2023-04-09T00:08:12.895Z,1025.50
2023-04-09T00:09:12.844Z,1025.48
2023-04-09T00:10:13.955Z,1025.47
2023-04-09T00:11:12.793Z,1025.50
2023-04-09T00:12:13.875Z,1025.49
2023-04-09T00:13:13.788Z,1025.49
2023-04-09T00:14:13.749Z,1025.50
2023-04-09T00:15:27.899Z,1025.49
2023-04-09T00:16:13.147Z,1025.49
2023-04-09T00:17:13.149Z,1025.46
2023-04-09T00:18:13.097Z,1025.48
2023-04-09T00:19:13.014Z,1025.45
2023-04-09T00:20:13.036Z,1025.45
2023-04-09T00:21:13.069Z,1025.44
2023-04-09T00:22:13.031Z,1025.45
2023-04-09T00:23:13.109Z,1025.49
2023-04-09T00:24:13.045Z,1025.45
2023-04-09T00:25:13.018Z,1025.44
2023-04-09T00:26:13.395Z,1025.43
2023-04-09T00:27:13.424Z,1025.43
2023-04-09T00:28:13.854Z,1025.42
2023-04-09T00:29:13.800Z,1025.43
2023-04-09T00:30:13.830Z,1025.44
2023-04-09T00:31:13.803Z,1025.40
2023-04-09T00:32:13.810Z,1025.40
2023-04-09T00:33:14.115Z,1025.40
2023-04-09T00:34:13.568Z,1025.40
2023-04-09T00:35:13.564Z,1025.38
2023-04-09T00:36:13.634Z,1025.34
2023-04-09T00:37:14.579Z,1025.38
2023-04-09T00:38:13.722Z,1025.35
2023-04-09T00:39:13.717Z,1025.32
2023-04-09T00:40:13.842Z,1025.37
2023-04-09T00:41:14.149Z,1025.35
2023-04-09T00:42:13.129Z,1025.37
2023-04-09T00:43:13.157Z,1025.35
2023-04-09T00:44:13.075Z,1025.32
2023-04-09T00:45:13.264Z,1025.34
2023-04-09T00:46:13.294Z,1025.35
2023-04-09T00:47:13.450Z,1025.32
2023-04-09T00:48:13.584Z,1025.35
2023-04-09T00:49:13.582Z,1025.31
2023-04-09T00:50:13.567Z,1025.32
2023-04-09T00:51:13.510Z,1025.33
2023-04-09T00:52:13.458Z,1025.32
2023-04-09T00:53:13.415Z,1025.34
2023-04-09T00:54:13.536Z,1025.31
2023-04-09T00:55:13.432Z,1025.32
2023-04-09T00:56:13.487Z,1025.31
2023-04-09T00:57:13.428Z,1025.30
2023-04-09T00:58:13.418Z,1025.33
2023-04-09T00:59:13.359Z,1025.32
2023-04-09T01:00:13.368Z,1025.32
2023-04-09T01:01:13.354Z,1025.33
2023-04-09T01:02:13.358Z,1025.30
2023-04-09T01:03:13.520Z,1025.32
2023-04-09T01:04:13.600Z,1025.33
2023-04-09T01:05:13.860Z,1025.36
2023-04-09T01:06:14.047Z,1025.36
2023-04-09T01:07:13.140Z,1025.35
2023-04-09T01:08:13.201Z,1025.36
2023-04-09T01:09:13.469Z,1025.39
2023-04-09T01:10:13.891Z,1025.40
2023-04-09T01:11:12.772Z,1025.42
2023-04-09T01:12:13.643Z,1025.34
2023-04-09T01:13:13.620Z,1025.32
2023-04-09T01:14:13.772Z,1025.30
2023-04-09T01:15:14.356Z,1025.30
2023-04-09T01:16:13.343Z,1025.32
2023-04-09T01:17:13.491Z,1025.33
2023-04-09T01:18:13.610Z,1025.32
2023-04-09T01:19:13.476Z,1025.32
2023-04-09T01:20:13.680Z,1025.31
2023-04-09T01:21:14.784Z,1025.31
2023-04-09T01:22:13.620Z,1025.31
2023-04-09T01:23:13.723Z,1025.30
2023-04-09T01:24:14.021Z,1025.32
2023-04-09T01:25:13.194Z,1025.32
2023-04-09T01:26:13.463Z,1025.35
2023-04-09T01:27:13.507Z,1025.28
2023-04-09T01:28:13.353Z,1025.33
2023-04-09T01:29:13.562Z,1025.32
2023-04-09T01:30:13.786Z,1025.31
2023-04-09T01:31:13.836Z,1025.31
2023-04-09T01:32:12.908Z,1025.31
2023-04-09T01:33:12.973Z,1025.30
2023-04-09T01:34:13.223Z,1025.30
2023-04-09T01:35:13.072Z,1025.30
2023-04-09T01:36:13.105Z,1025.27
2023-04-09T01:37:13.002Z,1025.28
2023-04-09T01:38:13.344Z,1025.29
2023-04-09T01:39:13.758Z,1025.26
2023-04-09T01:40:13.885Z,1025.24
2023-04-09T01:41:12.901Z,1025.30
2023-04-09T01:42:13.194Z,1025.27
2023-04-09T01:43:13.505Z,1025.26
2023-04-09T01:44:13.979Z,1025.28
2023-04-09T01:45:12.976Z,1025.30
2023-04-09T01:46:13.048Z,1025.27
2023-04-09T01:47:13.143Z,1025.27
2023-04-09T01:48:13.329Z,1025.23
2023-04-09T01:49:13.253Z,1025.25
2023-04-09T01:50:13.675Z,1025.24
2023-04-09T01:51:13.862Z,1025.25
2023-04-09T01:52:13.778Z,1025.22
2023-04-09T01:53:13.931Z,1025.25
2023-04-09T01:54:13.271Z,1025.23
2023-04-09T01:55:13.604Z,1025.26
2023-04-09T01:56:13.646Z,1025.27
2023-04-09T01:57:13.469Z,1025.24
2023-04-09T01:58:13.358Z,1025.24
2023-04-09T01:59:13.286Z,1025.23
2023-04-09T02:00:13.693Z,1025.27
2023-04-09T02:01:13.798Z,1025.26
2023-04-09T02:02:14.154Z,1025.25
2023-04-09T02:03:13.568Z,1025.25
2023-04-09T02:04:13.648Z,1025.23
2023-04-09T02:05:13.859Z,1025.24
2023-04-09T02:06:13.995Z,1025.27
2023-04-09T02:07:13.036Z,1025.23
2023-04-09T02:08:12.949Z,1025.19
2023-04-09T02:09:12.937Z,1025.20
2023-04-09T02:10:12.842Z,1025.19
2023-04-09T02:11:13.747Z,1025.23
2023-04-09T02:12:13.805Z,1025.19
2023-04-09T02:13:13.697Z,1025.21
2023-04-09T02:14:13.821Z,1025.18
2023-04-09T02:15:13.786Z,1025.24
2023-04-09T02:16:13.930Z,1025.23
2023-04-09T02:17:12.815Z,1025.18
2023-04-09T02:18:13.813Z,1025.23
2023-04-09T02:19:13.817Z,1025.23
2023-04-09T02:20:13.853Z,1025.23
2023-04-09T02:21:13.717Z,1025.24
2023-04-09T02:22:13.697Z,1025.22
2023-04-09T02:23:13.840Z,1025.21
2023-04-09T02:24:13.900Z,1025.24
2023-04-09T02:25:12.860Z,1025.20
2023-04-09T02:26:13.886Z,1025.18
2023-04-09T02:27:13.127Z,1025.19
2023-04-09T02:28:13.045Z,1025.15
2023-04-09T02:29:12.923Z,1025.11
2023-04-09T02:30:12.987Z,1025.13
2023-04-09T02:31:13.140Z,1025.16
2023-04-09T02:32:13.034Z,1025.10
2023-04-09T02:33:13.190Z,1025.13
2023-04-09T02:34:13.237Z,1025.12
2023-04-09T02:35:13.503Z,1025.12
2023-04-09T02:36:13.542Z,1025.14
2023-04-09T02:37:13.634Z,1025.10
2023-04-09T02:38:13.615Z,1025.12
2023-04-09T02:39:13.996Z,1025.09
2023-04-09T02:40:12.863Z,1025.04
2023-04-09T02:41:13.754Z,1025.02
2023-04-09T02:42:13.793Z,1025.02
2023-04-09T02:43:14.029Z,1025.08
2023-04-09T02:44:14.354Z,1025.06
2023-04-09T02:45:13.445Z,1025.01
2023-04-09T02:46:13.504Z,1024.99
2023-04-09T02:47:13.589Z,1025.01
2023-04-09T02:48:13.622Z,1025.01
2023-04-09T02:49:13.538Z,1024.99
2023-04-09T02:50:14.042Z,1024.98
2023-04-09T02:51:12.941Z,1024.95
2023-04-09T02:52:12.712Z,1024.94
2023-04-09T02:53:13.493Z,1024.97
2023-04-09T02:54:13.373Z,1024.97
2023-04-09T02:55:13.464Z,1024.96
2023-04-09T02:56:13.548Z,1024.93
2023-04-09T02:57:13.623Z,1024.93
2023-04-09T02:58:13.613Z,1024.91
2023-04-09T02:59:13.948Z,1024.94
2023-04-09T03:00:12.930Z,1024.93
2023-04-09T03:01:13.051Z,1024.91
2023-04-09T03:02:13.583Z,1024.92
2023-04-09T03:03:13.891Z,1024.92
2023-04-09T03:04:13.177Z,1024.90
2023-04-09T03:05:13.609Z,1024.87
2023-04-09T03:06:13.642Z,1024.91
2023-04-09T03:07:13.506Z,1024.86
2023-04-09T03:08:13.379Z,1024.92
2023-04-09T03:09:13.539Z,1024.89
2023-04-09T03:10:13.506Z,1024.86
2023-04-09T03:11:13.457Z,1024.86
2023-04-09T03:12:13.451Z,1024.81
2023-04-09T03:13:13.377Z,1024.85
2023-04-09T03:14:13.512Z,1024.83
2023-04-09T03:15:13.747Z,1024.78
2023-04-09T03:16:13.791Z,1024.83
2023-04-09T03:17:13.881Z,1024.80
2023-04-09T03:18:14.033Z,1024.77
2023-04-09T03:19:13.097Z,1024.76
2023-04-09T03:20:12.962Z,1024.74
2023-04-09T03:21:14.881Z,1024.75
2023-04-09T03:22:13.321Z,1024.80
2023-04-09T03:23:13.147Z,1024.72
2023-04-09T03:24:13.016Z,1024.73
2023-04-09T03:25:12.913Z,1024.75
2023-04-09T03:26:12.889Z,1024.75
2023-04-09T03:27:13.767Z,1024.75
2023-04-09T03:28:13.634Z,1024.74
2023-04-09T03:29:13.630Z,1024.76
2023-04-09T03:30:13.626Z,1024.72
2023-04-09T03:31:13.506Z,1024.75
2023-04-09T03:32:13.674Z,1024.68
2023-04-09T03:33:13.636Z,1024.75
2023-04-09T03:34:13.514Z,1024.74
2023-04-09T03:35:13.728Z,1024.71
2023-04-09T03:36:13.590Z,1024.73
2023-04-09T03:37:13.648Z,1024.74
2023-04-09T03:38:13.481Z,1024.70
2023-04-09T03:39:13.631Z,1024.70
2023-04-09T03:40:13.519Z,1024.70
2023-04-09T03:41:13.664Z,1024.74
2023-04-09T03:42:13.914Z,1024.69
2023-04-09T03:43:13.103Z,1024.67
2023-04-09T03:44:13.234Z,1024.66
2023-04-09T03:45:13.088Z,1024.66
2023-04-09T03:46:13.102Z,1024.66
2023-04-09T03:47:12.937Z,1024.67
2023-04-09T03:48:12.963Z,1024.67
2023-04-09T03:49:12.857Z,1024.65
2023-04-09T03:50:13.777Z,1024.63
2023-04-09T03:51:13.684Z,1024.63
2023-04-09T03:52:13.926Z,1024.64
2023-04-09T03:53:13.082Z,1024.62
2023-04-09T03:54:12.868Z,1024.63
2023-04-09T03:55:14.230Z,1024.60
2023-04-09T03:56:13.230Z,1024.64
2023-04-09T03:57:13.321Z,1024.62
2023-04-09T03:58:13.659Z,1024.62
2023-04-09T03:59:13.539Z,1024.63
2023-04-09T04:00:13.465Z,1024.65
2023-04-09T04:01:13.802Z,1024.59
2023-04-09T04:02:14.085Z,1024.60
2023-04-09T04:03:13.433Z,1024.60
2023-04-09T04:04:13.712Z,1024.57
2023-04-09T04:05:13.541Z,1024.58
2023-04-09T04:06:13.642Z,1024.55
2023-04-09T04:07:14.098Z,1024.61
2023-04-09T04:08:12.963Z,1024.59
2023-04-09T04:09:13.040Z,1024.60
2023-04-09T04:10:12.983Z,1024.61
2023-04-09T04:11:12.886Z,1024.58
2023-04-09T04:12:13.984Z,1024.63
2023-04-09T04:13:13.338Z,1024.60
2023-04-09T04:14:13.337Z,1024.57
2023-04-09T04:15:13.385Z,1024.58
2023-04-09T04:16:13.313Z,1024.60
2023-04-09T04:17:13.574Z,1024.62
2023-04-09T04:18:13.448Z,1024.63
2023-04-09T04:19:13.419Z,1024.61
2023-04-09T04:20:13.323Z,1024.61
2023-04-09T04:21:13.368Z,1024.62
2023-04-09T04:22:13.417Z,1024.64
2023-04-09T04:23:13.436Z,1024.64
2023-04-09T04:24:13.342Z,1024.66
2023-04-09T04:25:13.576Z,1024.63
2023-04-09T04:26:13.400Z,1024.65
2023-04-09T04:27:13.578Z,1024.65
2023-04-09T04:28:13.587Z,1024.66
2023-04-09T04:29:13.659Z,1024.66
2023-04-09T04:30:13.748Z,1024.69
2023-04-09T04:31:14.040Z,1024.68
2023-04-09T04:32:13.140Z,1024.69
2023-04-09T04:33:13.719Z,1024.64
2023-04-09T04:34:13.599Z,1024.67
2023-04-09T04:35:13.710Z,1024.68
2023-04-09T04:36:13.610Z,1024.68
2023-04-09T04:37:13.670Z,1024.70
2023-04-09T04:38:13.555Z,1024.71
2023-04-09T04:39:13.419Z,1024.74
2023-04-09T04:40:13.537Z,1024.70
2023-04-09T04:41:13.821Z,1024.76
2023-04-09T04:42:13.659Z,1024.76
2023-04-09T04:43:13.918Z,1024.76
2023-04-09T04:44:13.169Z,1024.76
2023-04-09T04:45:13.313Z,1024.74
2023-04-09T04:46:13.372Z,1024.76
2023-04-09T04:47:13.418Z,1024.76
2023-04-09T04:48:13.340Z,1024.76
2023-04-09T04:49:13.350Z,1024.72
2023-04-09T04:50:13.720Z,1024.71
2023-04-09T04:51:13.856Z,1024.71
2023-04-09T04:52:14.420Z,1024.71
2023-04-09T04:53:13.805Z,1024.69
2023-04-09T04:54:13.877Z,1024.70
2023-04-09T04:55:13.936Z,1024.69
2023-04-09T04:56:13.199Z,1024.68
2023-04-09T04:57:13.392Z,1024.68
2023-04-09T04:58:13.358Z,1024.69
2023-04-09T04:59:13.302Z,1024.71
2023-04-09T05:00:13.415Z,1024.66
2023-04-09T05:01:13.536Z,1024.69
2023-04-09T05:02:13.626Z,1024.70
2023-04-09T05:03:14.049Z,1024.69
2023-04-09T05:04:13.461Z,1024.68
2023-04-09T05:05:13.538Z,1024.65
2023-04-09T05:06:13.711Z,1024.65
2023-04-09T05:07:13.678Z,1024.65
2023-04-09T05:08:13.572Z,1024.68
2023-04-09T05:09:13.374Z,1024.68
2023-04-09T05:10:13.368Z,1024.70
2023-04-09T05:11:13.474Z,1024.69
2023-04-09T05:12:13.588Z,1024.73
2023-04-09T05:13:13.537Z,1024.71
2023-04-09T05:14:13.580Z,1024.74
2023-04-09T05:15:13.622Z,1024.71
2023-04-09T05:16:13.439Z,1024.73
2023-04-09T05:17:13.425Z,1024.71
2023-04-09T05:18:13.451Z,1024.68
2023-04-09T05:19:13.596Z,1024.69
2023-04-09T05:20:13.476Z,1024.67
2023-04-09T05:21:13.504Z,1024.67
2023-04-09T05:22:13.403Z,1024.68
2023-04-09T05:23:13.560Z,1024.69
2023-04-09T05:24:13.597Z,1024.67
2023-04-09T05:25:13.547Z,1024.70
2023-04-09T05:26:13.459Z,1024.67
2023-04-09T05:27:13.498Z,1024.73
2023-04-09T05:28:13.396Z,1024.69
2023-04-09T05:29:13.213Z,1024.74
2023-04-09T05:30:13.177Z,1024.70
2023-04-09T05:31:13.738Z,1024.73
2023-04-09T05:32:12.725Z,1024.72
2023-04-09T05:33:13.833Z,1024.76
2023-04-09T05:34:13.799Z,1024.77
2023-04-09T05:35:13.756Z,1024.74
2023-04-09T05:36:14.031Z,1024.74
2023-04-09T05:37:13.130Z,1024.76
2023-04-09T05:38:13.075Z,1024.75
2023-04-09T05:39:12.899Z,1024.75
2023-04-09T05:40:12.720Z,1024.77
2023-04-09T05:41:13.907Z,1024.77
2023-04-09T05:42:13.140Z,1024.72
2023-04-09T05:43:13.145Z,1024.77
2023-04-09T05:44:12.991Z,1024.78
2023-04-09T05:45:12.937Z,1024.78
2023-04-09T05:46:12.901Z,1024.81
2023-04-09T05:47:12.739Z,1024.82
2023-04-09T05:48:14.197Z,1024.81
2023-04-09T05:49:13.459Z,1024.82
2023-04-09T05:50:13.532Z,1024.79
2023-04-09T05:51:13.445Z,1024.82
2023-04-09T05:52:13.402Z,1024.85
2023-04-09T05:53:13.414Z,1024.85
2023-04-09T05:54:13.535Z,1024.86
2023-04-09T05:55:13.484Z,1024.86
2023-04-09T05:56:13.402Z,1024.87
2023-04-09T05:57:13.622Z,1024.91
2023-04-09T05:58:13.592Z,1024.90
2023-04-09T05:59:13.687Z,1024.93
2023-04-09T06:00:13.960Z,1024.92
2023-04-09T06:01:12.939Z,1024.89
2023-04-09T06:02:13.098Z,1024.92
2023-04-09T06:03:13.103Z,1024.88
2023-04-09T06:04:13.313Z,1024.88
2023-04-09T06:05:13.748Z,1024.86
2023-04-09T06:06:13.802Z,1024.90
2023-04-09T06:07:13.911Z,1024.86
2023-04-09T06:08:12.828Z,1024.89
2023-04-09T06:09:13.727Z,1024.88
2023-04-09T06:10:13.901Z,1024.90
2023-04-09T06:11:13.200Z,1024.91
2023-04-09T06:12:13.308Z,1024.92
2023-04-09T06:13:13.300Z,1024.94
2023-04-09T06:14:13.238Z,1024.95
2023-04-09T06:15:13.377Z,1024.93
2023-04-09T06:16:13.299Z,1025.01
2023-04-09T06:17:13.577Z,1024.97
2023-04-09T06:18:13.466Z,1024.99
2023-04-09T06:19:13.512Z,1024.99
2023-04-09T06:20:13.333Z,1024.99
2023-04-09T06:21:13.623Z,1025.03
2023-04-09T06:22:13.459Z,1024.99
2023-04-09T06:23:13.489Z,1024.98
2023-04-09T06:24:13.575Z,1024.99
2023-04-09T06:25:13.504Z,1025.01
2023-04-09T06:26:13.550Z,1024.95
2023-04-09T06:27:13.585Z,1025.03
2023-04-09T06:28:23.669Z,1024.96
2023-04-09T06:29:13.734Z,1024.98
2023-04-09T06:30:13.750Z,1025.03
2023-04-09T06:31:14.097Z,1025.03
2023-04-09T06:32:13.325Z,1025.00
2023-04-09T06:33:13.305Z,1025.00
2023-04-09T06:34:13.321Z,1025.02
2023-04-09T06:35:13.399Z,1024.94
2023-04-09T06:36:13.296Z,1024.97
2023-04-09T06:37:13.591Z,1025.00
2023-04-09T06:38:13.633Z,1024.93
2023-04-09T06:39:13.865Z,1024.99
2023-04-09T06:40:13.777Z,1024.95
2023-04-09T06:41:13.947Z,1025.01
2023-04-09T06:42:12.991Z,1025.00
2023-04-09T06:43:13.264Z,1025.01
2023-04-09T06:44:13.364Z,1024.94
2023-04-09T06:45:13.434Z,1024.97
2023-04-09T06:46:13.273Z,1025.00
2023-04-09T06:47:13.661Z,1025.01
2023-04-09T06:48:13.556Z,1025.02
2023-04-09T06:49:13.416Z,1025.02
2023-04-09T06:50:13.251Z,1025.00
2023-04-09T06:51:44.686Z,1025.04
2023-04-09T06:52:13.924Z,1025.02
2023-04-09T06:53:12.940Z,1025.04
2023-04-09T06:54:13.034Z,1025.03
2023-04-09T06:55:13.254Z,1025.04
2023-04-09T06:56:13.320Z,1025.05
2023-04-09T06:57:13.354Z,1025.01
2023-04-09T06:58:13.405Z,1025.09
2023-04-09T06:59:13.480Z,1025.09
2023-04-09T07:00:13.585Z,1025.10
2023-04-09T07:01:13.520Z,1025.10
2023-04-09T07:02:13.778Z,1025.09
2023-04-09T07:03:13.104Z,1025.07
2023-04-09T07:04:13.094Z,1025.07
2023-04-09T07:05:13.178Z,1025.06
2023-04-09T07:06:12.997Z,1025.06
2023-04-09T07:07:12.945Z,1025.02
2023-04-09T07:08:13.339Z,1025.02
2023-04-09T07:09:13.218Z,1025.08
2023-04-09T07:10:13.098Z,1025.07
2023-04-09T07:11:13.467Z,1025.08
2023-04-09T07:12:13.414Z,1025.08
2023-04-09T07:13:13.339Z,1025.09
2023-04-09T07:14:13.682Z,1025.12
2023-04-09T07:15:13.845Z,1025.08
2023-04-09T07:16:13.894Z,1025.10
2023-04-09T07:17:12.866Z,1025.10
2023-04-09T07:18:13.801Z,1025.11
2023-04-09T07:19:13.685Z,1025.15
2023-04-09T07:20:13.571Z,1025.13
2023-04-09T07:21:13.584Z,1025.12
2023-04-09T07:22:13.438Z,1025.16
2023-04-09T07:23:13.509Z,1025.17
2023-04-09T07:24:13.750Z,1025.17
2023-04-09T07:25:14.236Z,1025.19
2023-04-09T07:26:13.219Z,1025.23
2023-04-09T07:27:13.442Z,1025.20
2023-04-09T07:28:13.373Z,1025.20
2023-04-09T07:29:13.287Z,1025.26
2023-04-09T07:30:13.138Z,1025.29
2023-04-09T07:31:13.074Z,1025.30
2023-04-09T07:32:13.074Z,1025.28
2023-04-09T07:33:13.162Z,1025.31
2023-04-09T07:34:13.508Z,1025.33
2023-04-09T07:35:13.599Z,1025.32
2023-04-09T07:36:13.753Z,1025.34
2023-04-09T07:37:14.051Z,1025.33
2023-04-09T07:38:12.926Z,1025.33
2023-04-09T07:39:13.106Z,1025.30
2023-04-09T07:40:13.379Z,1025.33
2023-04-09T07:41:15.287Z,1025.30
2023-04-09T07:42:13.268Z,1025.30
2023-04-09T07:43:13.526Z,1025.30
2023-04-09T07:44:13.823Z,1025.30
2023-04-09T07:45:13.809Z,1025.31
2023-04-09T07:46:13.745Z,1025.31
2023-04-09T07:47:13.629Z,1025.32
2023-04-09T07:48:13.512Z,1025.31
2023-04-09T07:49:13.587Z,1025.31
2023-04-09T07:50:13.558Z,1025.30
2023-04-09T07:51:18.675Z,1025.32
2023-04-09T07:52:13.801Z,1025.34
2023-04-09T07:53:13.992Z,1025.29
2023-04-09T07:54:13.144Z,1025.26
2023-04-09T07:55:49.947Z,1025.28
2023-04-09T07:56:13.020Z,1025.29
2023-04-09T07:57:13.538Z,1025.23
2023-04-09T07:58:13.599Z,1025.21
2023-04-09T07:59:13.555Z,1025.22
2023-04-09T08:00:13.476Z,1025.25
2023-04-09T08:01:13.407Z,1025.23
2023-04-09T08:02:15.219Z,1025.24
2023-04-09T08:03:13.627Z,1025.25
2023-04-09T08:04:14.012Z,1025.21
2023-04-09T08:05:12.941Z,1025.23
2023-04-09T08:06:13.010Z,1025.21
2023-04-09T08:07:13.087Z,1025.19
2023-04-09T08:08:13.120Z,1025.21
2023-04-09T08:09:13.126Z,1025.19
2023-04-09T08:10:13.287Z,1025.19
2023-04-09T08:11:13.353Z,1025.17
2023-04-09T08:12:13.306Z,1025.20
2023-04-09T08:13:13.156Z,1025.20
2023-04-09T08:14:13.116Z,1025.18
2023-04-09T08:15:12.979Z,1025.16
2023-04-09T08:16:12.982Z,1025.16
2023-04-09T08:17:12.821Z,1025.13
2023-04-09T08:18:13.663Z,1025.16
2023-04-09T08:19:13.483Z,1025.18
2023-04-09T08:20:13.493Z,1025.18
2023-04-09T08:21:13.415Z,1025.20
2023-04-09T08:22:13.337Z,1025.20
2023-04-09T08:23:13.352Z,1025.20
2023-04-09T08:24:13.397Z,1025.21
2023-04-09T08:25:13.389Z,1025.18
2023-04-09T08:26:13.343Z,1025.20
2023-04-09T08:27:13.146Z,1025.20
2023-04-09T08:28:13.106Z,1025.20
2023-04-09T08:29:13.147Z,1025.18
2023-04-09T08:31:13.413Z,1025.17
2023-04-09T08:32:13.262Z,1025.20
2023-04-09T08:33:13.551Z,1025.23
2023-04-09T08:34:13.633Z,1025.21
2023-04-09T08:35:14.064Z,1025.20
2023-04-09T08:36:13.132Z,1025.24
2023-04-09T08:37:13.023Z,1025.24
2023-04-09T08:38:13.167Z,1025.27
2023-04-09T08:39:13.137Z,1025.22
2023-04-09T08:40:13.260Z,1025.25
2023-04-09T08:41:14.099Z,1025.24
2023-04-09T08:42:13.343Z,1025.26
2023-04-09T08:43:13.468Z,1025.24
2023-04-09T08:44:13.329Z,1025.28
2023-04-09T08:45:13.335Z,1025.31
2023-04-09T08:46:13.685Z,1025.26
2023-04-09T08:47:13.715Z,1025.28
2023-04-09T08:48:13.934Z,1025.25
2023-04-09T08:49:13.091Z,1025.22
2023-04-09T08:50:13.005Z,1025.24
2023-04-09T08:51:13.137Z,1025.26
2023-04-09T08:52:14.756Z,1025.32
2023-04-09T08:53:13.953Z,1025.29
2023-04-09T08:54:13.509Z,1025.25
2023-04-09T08:55:13.904Z,1025.27
2023-04-09T08:56:13.176Z,1025.28
2023-04-09T08:57:13.220Z,1025.28
2023-04-09T08:58:13.349Z,1025.27
2023-04-09T08:59:13.554Z,1025.23
2023-04-09T09:00:13.783Z,1025.23
2023-04-09T09:01:13.851Z,1025.24
2023-04-09T09:02:14.016Z,1025.28
2023-04-09T09:03:13.107Z,1025.24
2023-04-09T09:04:14.313Z,1025.25
2023-04-09T09:05:13.495Z,1025.26
2023-04-09T09:06:13.469Z,1025.17
2023-04-09T09:07:13.306Z,1025.26
2023-04-09T09:08:13.380Z,1025.24
2023-04-09T09:09:13.424Z,1025.22
2023-04-09T09:10:13.334Z,1025.26
2023-04-09T09:11:13.606Z,1025.27
2023-04-09T09:12:13.620Z,1025.24
2023-04-09T09:13:13.507Z,1025.24
2023-04-09T09:14:13.633Z,1025.25
2023-04-09T09:15:13.926Z,1025.28
2023-04-09T09:16:13.484Z,1025.25
2023-04-09T09:17:13.621Z,1025.26
2023-04-09T09:18:14.033Z,1025.26
2023-04-09T09:19:12.914Z,1025.31
2023-04-09T09:20:12.986Z,1025.32
2023-04-09T09:21:12.989Z,1025.34
2023-04-09T09:22:13.111Z,1025.27
2023-04-09T09:23:13.151Z,1025.30
2023-04-09T09:24:13.079Z,1025.33
2023-04-09T09:25:13.158Z,1025.36
2023-04-09T09:26:13.220Z,1025.35
2023-04-09T09:27:13.205Z,1025.36
2023-04-09T09:28:13.437Z,1025.34
2023-04-09T09:29:13.346Z,1025.27
2023-04-09T09:30:13.558Z,1025.27
2023-04-09T09:31:13.690Z,1025.38
2023-04-09T09:32:13.974Z,1025.30
2023-04-09T09:33:12.980Z,1025.34
2023-04-09T09:34:12.943Z,1025.31
2023-04-09T09:35:13.074Z,1025.31
2023-04-09T09:36:13.020Z,1025.29
2023-04-09T09:37:13.164Z,1025.28
2023-04-09T09:38:13.223Z,1025.28
2023-04-09T09:39:13.183Z,1025.28
2023-04-09T09:40:13.331Z,1025.30
2023-04-09T09:41:13.389Z,1025.27
2023-04-09T09:42:13.330Z,1025.18
2023-04-09T09:43:14.621Z,1025.17
2023-04-09T09:44:14.030Z,1025.15
2023-04-09T09:45:13.215Z,1025.14
2023-04-09T09:46:13.562Z,1025.12
2023-04-09T09:47:14.139Z,1025.14
2023-04-09T09:48:13.225Z,1025.10
2023-04-09T09:49:13.458Z,1025.10
2023-04-09T09:50:13.511Z,1025.13
2023-04-09T09:51:13.754Z,1025.10
2023-04-09T09:52:15.306Z,1025.10
2023-04-09T09:53:13.239Z,1025.11
2023-04-09T09:54:13.294Z,1025.08
2023-04-09T09:55:13.440Z,1025.07
2023-04-09T09:56:13.739Z,1025.09
2023-04-09T09:57:13.977Z,1025.10
2023-04-09T09:58:13.027Z,1025.08
2023-04-09T09:59:13.423Z,1025.10
2023-04-09T10:00:13.390Z,1025.11
2023-04-09T10:01:13.476Z,1025.11
2023-04-09T10:02:13.807Z,1025.10
2023-04-09T10:03:13.733Z,1025.10
2023-04-09T10:04:13.789Z,1025.05
2023-04-09T10:05:13.769Z,1025.03
2023-04-09T10:06:13.954Z,1025.11
2023-04-09T10:07:12.906Z,1025.12
2023-04-09T10:08:12.997Z,1025.09
2023-04-09T10:09:13.151Z,1025.10
2023-04-09T10:10:13.486Z,1025.08
2023-04-09T10:11:13.378Z,1025.05
2023-04-09T10:12:13.332Z,1024.99
2023-04-09T10:13:13.404Z,1025.03
2023-04-09T10:14:13.813Z,1025.02
2023-04-09T10:15:15.182Z,1024.98
2023-04-09T10:16:13.397Z,1024.99
2023-04-09T10:17:13.561Z,1024.96
2023-04-09T10:18:13.612Z,1024.97
2023-04-09T10:19:13.754Z,1024.95
2023-04-09T10:20:13.851Z,1024.95
2023-04-09T10:21:14.122Z,1024.92
2023-04-09T10:22:13.463Z,1024.91
2023-04-09T10:23:13.441Z,1024.93
2023-04-09T10:24:13.465Z,1024.94
2023-04-09T10:25:13.384Z,1024.92
2023-04-09T10:26:13.351Z,1024.94
2023-04-09T10:27:15.716Z,1024.94
2023-04-09T10:28:13.737Z,1024.94
2023-04-09T10:29:13.638Z,1024.91
2023-04-09T10:30:13.896Z,1024.90
2023-04-09T10:31:12.971Z,1024.89
2023-04-09T10:32:13.079Z,1024.91
2023-04-09T10:33:13.292Z,1024.90
2023-04-09T10:34:13.225Z,1024.85
2023-04-09T10:35:13.608Z,1024.86
2023-04-09T10:36:13.838Z,1024.77
2023-04-09T10:37:13.994Z,1024.85
2023-04-09T10:38:13.132Z,1024.78
2023-04-09T10:39:13.143Z,1024.77
2023-04-09T10:40:13.142Z,1024.81
2023-04-09T10:41:13.231Z,1024.80
2023-04-09T10:42:13.201Z,1024.76
2023-04-09T10:43:13.466Z,1024.73
2023-04-09T10:44:13.599Z,1024.72
2023-04-09T10:45:13.607Z,1024.71
2023-04-09T10:46:13.607Z,1024.71
2023-04-09T10:47:13.620Z,1024.71
2023-04-09T10:48:14.021Z,1024.69
2023-04-09T10:49:12.881Z,1024.68
2023-04-09T10:50:13.769Z,1024.66
2023-04-09T10:51:13.790Z,1024.71
2023-04-09T10:52:15.307Z,1024.71
2023-04-09T10:53:13.640Z,1024.68
2023-04-09T10:54:13.842Z,1024.70
2023-04-09T10:55:13.912Z,1024.68
2023-04-09T10:56:12.803Z,1024.67
2023-04-09T10:57:13.871Z,1024.61
2023-04-09T10:58:14.026Z,1024.65
2023-04-09T10:59:13.170Z,1024.70
2023-04-09T11:00:13.156Z,1024.65
2023-04-09T11:01:13.094Z,1024.60
2023-04-09T11:02:13.380Z,1024.56
2023-04-09T11:03:14.960Z,1024.57
2023-04-09T11:04:13.089Z,1024.54
2023-04-09T11:05:14.237Z,1024.54
2023-04-09T11:06:13.331Z,1024.53
2023-04-09T11:07:13.277Z,1024.54
2023-04-09T11:08:13.116Z,1024.54
2023-04-09T11:09:13.365Z,1024.51
2023-04-09T11:10:13.546Z,1024.49
2023-04-09T11:11:13.749Z,1024.50
2023-04-09T11:12:13.942Z,1024.50
2023-04-09T11:13:13.122Z,1024.54
2023-04-09T11:14:13.112Z,1024.48
2023-04-09T11:15:13.152Z,1024.49
2023-04-09T11:16:13.366Z,1024.49
2023-04-09T11:17:13.301Z,1024.49
2023-04-09T11:18:13.345Z,1024.47
2023-04-09T11:19:13.456Z,1024.61
2023-04-09T11:20:13.395Z,1024.53
2023-04-09T11:21:13.256Z,1024.51
2023-04-09T11:22:13.110Z,1024.49
2023-04-09T11:23:13.119Z,1024.49
2023-04-09T11:24:13.117Z,1024.47
2023-04-09T11:25:15.962Z,1024.50
2023-04-09T11:26:13.870Z,1024.43
2023-04-09T11:27:13.837Z,1024.42
2023-04-09T11:28:13.936Z,1024.49
2023-04-09T11:29:16.185Z,1024.49
2023-04-09T11:30:16.291Z,1024.48
2023-04-09T11:31:13.518Z,1024.47
2023-04-09T11:32:13.603Z,1024.46
2023-04-09T11:33:16.872Z,1024.50
2023-04-09T11:34:13.544Z,1024.48
2023-04-09T11:35:16.681Z,1024.53
2023-04-09T11:36:15.368Z,1024.51
2023-04-09T11:37:19.329Z,1024.57
2023-04-09T11:38:17.715Z,1024.53
2023-04-09T11:39:16.231Z,1024.53
2023-04-09T11:40:17.429Z,1024.52
2023-04-09T11:41:15.027Z,1024.59
2023-04-09T11:42:13.424Z,1024.58
2023-04-09T11:43:13.412Z,1024.57
2023-04-09T11:44:14.794Z,1024.54
2023-04-09T11:45:18.069Z,1024.58
2023-04-09T11:46:18.565Z,1024.58
2023-04-09T11:47:19.400Z,1024.55
2023-04-09T11:48:16.452Z,1024.52
2023-04-09T11:49:14.851Z,1024.53
2023-04-09T11:50:15.820Z,1024.50
2023-04-09T11:51:15.344Z,1024.45
2023-04-09T11:52:18.478Z,1024.48
2023-04-09T11:53:18.824Z,1024.45
2023-04-09T11:54:16.943Z,1024.44
2023-04-09T11:55:15.387Z,1024.40
2023-04-09T11:56:13.611Z,1024.41
2023-04-09T11:57:17.480Z,1024.37
2023-04-09T11:58:18.437Z,1024.37
2023-04-09T11:59:13.372Z,1024.43
2023-04-09T12:00:21.344Z,1024.36
2023-04-09T12:01:16.226Z,1024.38
2023-04-09T12:02:13.237Z,1024.34
2023-04-09T12:03:16.264Z,1024.34
2023-04-09T12:04:18.827Z,1024.27
2023-04-09T12:05:14.255Z,1024.30
2023-04-09T12:06:13.261Z,1024.26